KFME/FME METAR and TAF weather

Enter ICAO airport designator
Station Type Date Time Source
KFME METAR 2019/04/25 16:00 UTC NOAA

KFME 251600Z AUTO 08004KT 10SM CLR 19/08 A2993 RMK AO1


Station Type Date Time Source
KFME Decoded METAR 2019/04/25 16:00 UTC NOAA

Fort Meade / Tipton, MD, United States (KFME) 39-05N 076-46W
Apr 25, 2019 - 12:00 PM EDT / 2019.04.25 1600 UTC
Wind: from the E (080 degrees) at 5 MPH (4 KT):0
Visibility: 10 mile(s):0
Sky conditions: clear
Temperature: 66 F (19 C)
Dew Point: 46 F (8 C)
Relative Humidity: 48%
Pressure (altimeter): 29.93 in. Hg (1013 hPa)
ob: KFME 251600Z AUTO 08004KT 10SM CLR 19/08 A2993 RMK AO1
cycle: 16

Station Type Date Time Source
KFME TAF UTC NOAA

Error!

Example: see airport list